Timeline UpdatesTrip UpdatesNews PostsPvt Posts♥♥Travel TipsAdmin PostsConv PostsFollowed PostsChat RequestsBlog PostsPNR Posts

Disclaimer
Search
 
 
Sun Dec 21, 2014 01:39:34 ISTHomeTrainsΣChainsAtlasPNRForumGalleryNewsFAQTripsMembersLoginFeedback
No Recent News for this Train
Other Trains in the News **new
Latest...
.
Tue Sep 17, 2013 (05:07PM)
⇐ Return Journey: Train# 37927

37926/Katwa-Howrah Local

Time-Table HAS CHANGED.
Sep 05 2014 (7:58AM)
Change Departure Station:
Change Arrival Station:
Post a Train Travel TipPost a Train Travel Tip **new
Post a Comment/Question/Picture/VideoPost a Comment/Question/Picture/Video
Pantry/Catering
✕ NO Pantry Car
✕ NO Catering
RSA - Rake Sharing
Rake/Coach Composition
Loco
News    PNR    Forum    Time-Table    Availability    Fare Chart    Map    Arr/Dep History    Trips    Gallery    ΣChains    X/O    Timeline    
Travel Time: 2h 55m    29 halts    Distance: 97 km    Avg Speed: 33 km/hr
Type: EMU - Kolkata
Zone: ER/Eastern
Departs @ 15:53 (Avg 39m late)
Platform# ???
SMTWTFS
Samudra Garh/SMAE 
Arrives @ 18:48 (Avg 13m late)
Platform# ???
SMTWTFS
Kolkata Howrah Junction/HWH 

29 halts. 32 intermediate Stations between Samudra Garh and Kolkata Howrah Junction

Hide intermediate Stations  Show Old Time-Table

#TrkCodeStation NameX/OArrivesAvgDepartsAvgHaltPFDay#KmSpeedElevZoneAddress
1!-=/KWAEKatwa Junction (5)  -15:00+3--1-47.45921mERDist - Bardhaman, West Bengal
2/==%DHAEDainhat (4)  15:06 15:07+615:07 15:08+111m--1-40.5-19mERDaihaat Rd, West Bengal
3%==%SHBASahebtala  15:09-15:10-1m--1-37.14118mERSahebtala, West Bengal
4%==%AGAEAgradwip (2)  15:19 15:14+1615:20 15:15+221m--1-34.49718mERDist - Bardhaman, West Bengal
5%==%PTAEPatuli (2)  15:23 15:18+2515:24 15:19+251m--1-29.510118mERDist - bardhaman, West Bengal
6%==%BQYBelerhat  15:28 15:22-15:29 15:23-1m--1-24.58219mERJajneswarpur, West Bengal
7%==%LKXLakshmipur (2)  15:31 15:25+2715:32 15:26+271m--1-21.89414mERDist - burdhaman, West Bengal
8%==%MTFAMertala Phaleya  15:34 15:28-15:35 15:29-1m--1-18.69016mERMertala Phaleya, West Bengal
9%==%PSAEPurbasthali (2)  15:37 15:31+3115:38 15:32+311m--1-15.67119mERDist - Bardhaman, West Bengal
10%==%BFZBhandartikuri  15:40 15:34+3115:41 15:35+311m--1-13.24521mERDist - Bardhaman, West Bengal
10.1%==%VSPRBishnupriya (1)  15:43 15:40-15:44 15:40-  1-9.8 4515mERDist - nadia, West Bengal
11%==%NDAENabadwip Dham (3)  15:48 15:42+1815:50 15:43+192 1m--1-8.012915mERDist - Nadia, West Bengal
12%=-/KLNTKalinagar (1)  16:00 15:45+3616:01 15:46+371m11-3.7379mERDist - Nadia, West Bengal
13/-=%SMAESamudra Garh»  16:04 15:52+3616:05 15:53+391m--10.02916mERDist - Bardhaman, West Bengal
13.1%==%NDIMNandaigram Halt  16:08 15:59-16:09 15:59-  12.9 2915mERState Highway 6, West Bengal
14%==/DTAEDhatrigram (4)  16:28 16:07+3116:29 16:08+311m--16.73116mERDhatrigram, West Bengal
15/==/BGRABaghnapara (2)  16:32 16:17-16:33 16:18-1m--111.33416mERKalna-Memari Rd, West Bengal
16/==/ABKAAmbika Kalna (4)  16:38 16:25+1516:39 16:26+151m--115.38612mERKalna, West Bengal
17/==/GPAEGuptipara  16:44 16:31+2516:45 16:32+251m--122.46814mERGuptipara Railway Station, West Bengal
18/==/BHLABehula  16:47 16:34-16:48 16:35-1m--124.77216mERDist - Hooghly, West Bengal
19/==/SOAESomra Bazar (2)  16:52 16:39-16:53 16:40-1m--129.55613mERState Highway 6, West Bengal
20/==/BGAEBalagarh  16:55 16:43-16:56 16:44-1m--132.39913mERBalagarh, West Bengal
21/==/JITJirat (3)  17:03 16:46+2717:04 16:47+271m--135.67815mERdist - hooghly, West Bengal
22/==/KMAEKhamargachhi  17:07 16:51+2917:08 16:52+291m--140.812014mERKhamargachi, West Bengal
23/==/DMLEDumurdaha  17:10 16:53-17:11 16:54-1m--142.89815mERDumurdahadham, West Bengal
24/==/KJUKuntighat  17:13 16:56-17:14 16:57-1m--146.16717mERKuntighat Railway Station, West Bengal
25/==/TBAETribeni  17:17 17:00+3117:18 17:01+311m--149.47416mERTribeni, West Bengal
26/==/BSAEBansh Baria  17:21 17:04+3317:22 17:05+331m--153.1713mERBansberia, West Bengal
27/==/BDCBandel Junction (7)  17:41+717:43+72m--157.611714mERdist - HOOGHLY, West Bengal
28/==/HGYHooghly (3)  17:44-17:45-1m--159.55414mERDist - Hooghly, West Bengal
29/==/CNSChuchura (3)  17:47-17:48-1m--161.39015mERDist - HOOGHLY - 712102, West Bengal
30/==/CGRChandan Nagar (3)  17:50+1317:51+131m--164.37116mERDist -HOOGHLY - 712136, West Bengal
31/==/MUUMankundu (3)  17:53-17:54-1m--166.76713mERChandannagar, West Bengal
32/==/BHRBhadreshwar (3)  17:55 17:56+1117:56 17:57+111m--168.911214mERBhadreswar, West Bengal
33/==/BBAEBaidyabati (3)  18:00 17:59-18:01 18:00-1m--172.72313mERBaidyabati, West Bengal
34/==/SHESeoraphuli Junction (6)  18:06+1418:07+141m--175.07613mERBaidyabati, West Bengal
35/==/SRPSerampore (4)  18:09+1518:10+151m--177.56411mERdist - hooghly, West Bengal
36/==/RISRishra (3)  18:13+018:14+01m--180.73511mERRishra, West Bengal
37/==/KOGKonnagar (3)  18:18 18:19+618:19 18:20+61m--183.710910mERDist: Howrah, West Bengal
38/==/HMZHind Motor (3)  18:20 18:21+018:21 18:22+01m--185.5549mERHindmotor, West Bengal
39/==/UPAUttarpara (3)  18:23 18:24+1518:24 18:25+151m--187.3819mERDist - Hooghly, West Bengal
40/==/BLYBally (6)  18:25 18:26-18:26 18:27-1m--188.6618mERDist - Howrah, West Bengal
41/==/BEQBelur (5)  18:27 18:29+1518:28 18:30+151m--190.6338mERHowrah, West Bengal
42/==/LLHLiluah (5)  18:30 18:33+1018:31 18:34+101m--192.32010mERHowrah, West Bengal
42.1/==/SYAELiluah Sorting  18:38-18:38-  193.6 205mERLiluah Sorting, West Bengal
42.2/==/HWHGHowrah Goods Cabin  18:45-18:45-  195.9 206mERHowrah, West Bengal
43/==/HWHKolkata Howrah Junction (23)•  18:48+13---196.8-10mERHowrah 711101, West Bengal
Scroll to Top
Scroll to Bottom


Go to Mobile site